sensor_id;sensor_type;location;lat;lon;timestamp;P1;durP1;ratioP1;P2;durP2;ratioP2
60026;SDS011;45891;53.006;6.512;2022-09-23T00:00:41;17.00;;;11.45;;
60026;SDS011;45891;53.006;6.512;2022-09-23T00:03:08;18.63;;;12.50;;
60026;SDS011;45891;53.006;6.512;2022-09-23T00:05:35;18.48;;;12.18;;
60026;SDS011;45891;53.006;6.512;2022-09-23T00:08:05;18.73;;;12.40;;
60026;SDS011;45891;53.006;6.512;2022-09-23T00:10:35;17.55;;;12.20;;
60026;SDS011;45891;53.006;6.512;2022-09-23T00:13:03;18.45;;;12.23;;
60026;SDS011;45891;53.006;6.512;2022-09-23T00:15:30;17.48;;;12.55;;
60026;SDS011;45891;53.006;6.512;2022-09-23T00:17:58;19.58;;;13.02;;
60026;SDS011;45891;53.006;6.512;2022-09-23T00:20:24;18.45;;;13.13;;
60026;SDS011;45891;53.006;6.512;2022-09-23T00:22:51;20.23;;;12.55;;
60026;SDS011;45891;53.006;6.512;2022-09-23T00:25:17;18.40;;;13.07;;
60026;SDS011;45891;53.006;6.512;2022-09-23T00:27:44;19.23;;;13.15;;
60026;SDS011;45891;53.006;6.512;2022-09-23T00:30:10;16.48;;;11.57;;
60026;SDS011;45891;53.006;6.512;2022-09-23T00:32:36;17.00;;;12.40;;
60026;SDS011;45891;53.006;6.512;2022-09-23T00:35:02;22.95;;;14.23;;
60026;SDS011;45891;53.006;6.512;2022-09-23T00:37:29;20.42;;;12.63;;
60026;SDS011;45891;53.006;6.512;2022-09-23T00:39:56;20.65;;;12.32;;
60026;SDS011;45891;53.006;6.512;2022-09-23T00:42:24;23.27;;;14.60;;
60026;SDS011;45891;53.006;6.512;2022-09-23T00:44:59;18.65;;;13.65;;
60026;SDS011;45891;53.006;6.512;2022-09-23T00:47:30;18.98;;;13.20;;
60026;SDS011;45891;53.006;6.512;2022-09-23T00:50:05;19.63;;;12.70;;
60026;SDS011;45891;53.006;6.512;2022-09-23T00:52:39;17.73;;;13.30;;
60026;SDS011;45891;53.006;6.512;2022-09-23T00:55:10;20.75;;;13.23;;
60026;SDS011;45891;53.006;6.512;2022-09-23T00:57:41;17.95;;;11.70;;
60026;SDS011;45891;53.006;6.512;2022-09-23T01:00:10;16.58;;;11.60;;
60026;SDS011;45891;53.006;6.512;2022-09-23T01:02:37;17.98;;;12.02;;
60026;SDS011;45891;53.006;6.512;2022-09-23T01:05:04;18.38;;;11.68;;
60026;SDS011;45891;53.006;6.512;2022-09-23T01:07:32;16.98;;;12.52;;
60026;SDS011;45891;53.006;6.512;2022-09-23T01:09:59;20.45;;;13.07;;
60026;SDS011;45891;53.006;6.512;2022-09-23T01:18:07;15.65;;;10.68;;
60026;SDS011;45891;53.006;6.512;2022-09-23T01:21:02;16.75;;;11.43;;
60026;SDS011;45891;53.006;6.512;2022-09-23T01:24:07;14.68;;;10.88;;
60026;SDS011;45891;53.006;6.512;2022-09-23T01:32:43;17.70;;;10.63;;
60026;SDS011;45891;53.006;6.512;2022-09-23T01:37:57;18.00;;;11.30;;
60026;SDS011;45891;53.006;6.512;2022-09-23T01:43:10;15.48;;;11.68;;
60026;SDS011;45891;53.006;6.512;2022-09-23T01:45:42;18.65;;;11.20;;
60026;SDS011;45891;53.006;6.512;2022-09-23T01:51:01;14.98;;;10.15;;
60026;SDS011;45891;53.006;6.512;2022-09-23T01:53:48;16.20;;;11.02;;
60026;SDS011;45891;53.006;6.512;2022-09-23T01:56:24;15.88;;;11.57;;
60026;SDS011;45891;53.006;6.512;2022-09-23T01:59:04;15.00;;;9.57;;
60026;SDS011;45891;53.006;6.512;2022-09-23T02:01:51;16.77;;;11.77;;
60026;SDS011;45891;53.006;6.512;2022-09-23T02:07:15;15.75;;;10.63;;
60026;SDS011;45891;53.006;6.512;2022-09-23T02:09:49;17.73;;;12.07;;
60026;SDS011;45891;53.006;6.512;2022-09-23T02:12:22;16.52;;;11.27;;
60026;SDS011;45891;53.006;6.512;2022-09-23T02:15:03;16.13;;;11.40;;
60026;SDS011;45891;53.006;6.512;2022-09-23T02:17:54;15.43;;;11.20;;
60026;SDS011;45891;53.006;6.512;2022-09-23T02:20:27;16.67;;;10.85;;
60026;SDS011;45891;53.006;6.512;2022-09-23T02:26:02;16.10;;;10.95;;
60026;SDS011;45891;53.006;6.512;2022-09-23T02:28:37;15.85;;;11.68;;
60026;SDS011;45891;53.006;6.512;2022-09-23T02:31:37;16.10;;;11.65;;
60026;SDS011;45891;53.006;6.512;2022-09-23T02:34:11;15.55;;;10.82;;
60026;SDS011;45891;53.006;6.512;2022-09-23T02:42:20;19.23;;;11.80;;
60026;SDS011;45891;53.006;6.512;2022-09-23T02:44:51;17.17;;;11.65;;
60026;SDS011;45891;53.006;6.512;2022-09-23T02:47:17;16.85;;;12.25;;
60026;SDS011;45891;53.006;6.512;2022-09-23T02:52:14;18.40;;;13.65;;
60026;SDS011;45891;53.006;6.512;2022-09-23T02:54:41;18.17;;;13.35;;
60026;SDS011;45891;53.006;6.512;2022-09-23T02:57:08;17.48;;;12.00;;
60026;SDS011;45891;53.006;6.512;2022-09-23T02:59:34;17.25;;;12.40;;
60026;SDS011;45891;53.006;6.512;2022-09-23T03:19:16;18.27;;;13.30;;
60026;SDS011;45891;53.006;6.512;2022-09-23T03:22:16;17.60;;;13.43;;
60026;SDS011;45891;53.006;6.512;2022-09-23T03:24:52;19.38;;;13.10;;
60026;SDS011;45891;53.006;6.512;2022-09-23T03:27:24;17.75;;;12.70;;
60026;SDS011;45891;53.006;6.512;2022-09-23T03:29:54;16.85;;;12.95;;
60026;SDS011;45891;53.006;6.512;2022-09-23T03:32:23;20.08;;;13.52;;
60026;SDS011;45891;53.006;6.512;2022-09-23T03:34:53;18.23;;;13.52;;
60026;SDS011;45891;53.006;6.512;2022-09-23T03:37:38;17.15;;;13.13;;
60026;SDS011;45891;53.006;6.512;2022-09-23T03:40:23;20.27;;;14.25;;
60026;SDS011;45891;53.006;6.512;2022-09-23T03:42:54;18.30;;;14.55;;
60026;SDS011;45891;53.006;6.512;2022-09-23T03:45:25;18.35;;;14.20;;
60026;SDS011;45891;53.006;6.512;2022-09-23T03:47:54;19.83;;;14.15;;
60026;SDS011;45891;53.006;6.512;2022-09-23T03:50:20;17.95;;;13.38;;
60026;SDS011;45891;53.006;6.512;2022-09-23T03:52:46;17.92;;;13.15;;
60026;SDS011;45891;53.006;6.512;2022-09-23T03:55:15;16.80;;;13.43;;
60026;SDS011;45891;53.006;6.512;2022-09-23T03:57:42;18.33;;;14.20;;
60026;SDS011;45891;53.006;6.512;2022-09-23T04:00:09;18.45;;;13.73;;
60026;SDS011;45891;53.006;6.512;2022-09-23T04:02:36;20.08;;;14.80;;
60026;SDS011;45891;53.006;6.512;2022-09-23T04:05:03;18.92;;;15.95;;
60026;SDS011;45891;53.006;6.512;2022-09-23T04:07:30;17.25;;;14.35;;
60026;SDS011;45891;53.006;6.512;2022-09-23T04:09:56;20.42;;;14.90;;
60026;SDS011;45891;53.006;6.512;2022-09-23T04:12:23;19.33;;;15.18;;
60026;SDS011;45891;53.006;6.512;2022-09-23T04:14:49;18.42;;;15.10;;
60026;SDS011;45891;53.006;6.512;2022-09-23T04:17:15;19.45;;;15.25;;
60026;SDS011;45891;53.006;6.512;2022-09-23T04:19:41;20.15;;;14.77;;
60026;SDS011;45891;53.006;6.512;2022-09-23T04:22:08;19.20;;;16.05;;
60026;SDS011;45891;53.006;6.512;2022-09-23T04:24:34;20.20;;;15.50;;
60026;SDS011;45891;53.006;6.512;2022-09-23T04:27:00;18.42;;;15.20;;
60026;SDS011;45891;53.006;6.512;2022-09-23T04:29:26;18.30;;;15.70;;
60026;SDS011;45891;53.006;6.512;2022-09-23T04:31:53;22.48;;;17.63;;
60026;SDS011;45891;53.006;6.512;2022-09-23T04:34:19;18.52;;;16.30;;
60026;SDS011;45891;53.006;6.512;2022-09-23T04:36:46;20.98;;;16.75;;
60026;SDS011;45891;53.006;6.512;2022-09-23T04:39:13;21.30;;;16.10;;
60026;SDS011;45891;53.006;6.512;2022-09-23T04:41:41;21.83;;;17.52;;
60026;SDS011;45891;53.006;6.512;2022-09-23T04:44:11;19.10;;;16.52;;
60026;SDS011;45891;53.006;6.512;2022-09-23T04:46:39;18.75;;;16.42;;
60026;SDS011;45891;53.006;6.512;2022-09-23T04:49:06;20.08;;;17.10;;
60026;SDS011;45891;53.006;6.512;2022-09-23T04:51:32;20.30;;;16.75;;
60026;SDS011;45891;53.006;6.512;2022-09-23T04:53:59;20.40;;;16.02;;
60026;SDS011;45891;53.006;6.512;2022-09-23T04:56:27;21.67;;;16.85;;
60026;SDS011;45891;53.006;6.512;2022-09-23T04:58:54;24.60;;;16.58;;
60026;SDS011;45891;53.006;6.512;2022-09-23T05:01:27;20.75;;;16.58;;
60026;SDS011;45891;53.006;6.512;2022-09-23T05:03:56;20.13;;;15.75;;
60026;SDS011;45891;53.006;6.512;2022-09-23T05:06:26;19.70;;;16.48;;
60026;SDS011;45891;53.006;6.512;2022-09-23T05:08:54;19.67;;;17.02;;
60026;SDS011;45891;53.006;6.512;2022-09-23T05:11:22;20.40;;;17.30;;
60026;SDS011;45891;53.006;6.512;2022-09-23T05:13:50;21.30;;;17.55;;
60026;SDS011;45891;53.006;6.512;2022-09-23T05:16:17;20.75;;;17.20;;
60026;SDS011;45891;53.006;6.512;2022-09-23T05:18:44;20.77;;;16.90;;
60026;SDS011;45891;53.006;6.512;2022-09-23T05:21:13;22.00;;;17.10;;
60026;SDS011;45891;53.006;6.512;2022-09-23T05:23:41;23.67;;;17.17;;
60026;SDS011;45891;53.006;6.512;2022-09-23T05:26:11;19.33;;;16.83;;
60026;SDS011;45891;53.006;6.512;2022-09-23T05:28:38;23.55;;;17.88;;
60026;SDS011;45891;53.006;6.512;2022-09-23T05:33:34;20.42;;;17.77;;
60026;SDS011;45891;53.006;6.512;2022-09-23T05:36:02;23.50;;;17.48;;
60026;SDS011;45891;53.006;6.512;2022-09-23T05:38:29;22.40;;;17.25;;
60026;SDS011;45891;53.006;6.512;2022-09-23T05:41:00;21.20;;;17.30;;
60026;SDS011;45891;53.006;6.512;2022-09-23T05:43:28;21.08;;;16.70;;
60026;SDS011;45891;53.006;6.512;2022-09-23T05:46:05;20.33;;;16.65;;
60026;SDS011;45891;53.006;6.512;2022-09-23T05:48:35;20.00;;;17.13;;
60026;SDS011;45891;53.006;6.512;2022-09-23T05:51:02;20.75;;;17.17;;
60026;SDS011;45891;53.006;6.512;2022-09-23T05:53:31;20.60;;;17.13;;
60026;SDS011;45891;53.006;6.512;2022-09-23T05:55:57;19.60;;;16.33;;
60026;SDS011;45891;53.006;6.512;2022-09-23T05:58:23;19.92;;;16.75;;
60026;SDS011;45891;53.006;6.512;2022-09-23T06:00:50;21.58;;;17.20;;
60026;SDS011;45891;53.006;6.512;2022-09-23T06:03:17;20.70;;;17.02;;
60026;SDS011;45891;53.006;6.512;2022-09-23T06:05:44;19.65;;;15.65;;
60026;SDS011;45891;53.006;6.512;2022-09-23T06:08:11;19.90;;;15.57;;
60026;SDS011;45891;53.006;6.512;2022-09-23T06:10:38;21.88;;;16.50;;
60026;SDS011;45891;53.006;6.512;2022-09-23T06:13:06;19.17;;;16.13;;
60026;SDS011;45891;53.006;6.512;2022-09-23T06:15:33;21.30;;;16.27;;
60026;SDS011;45891;53.006;6.512;2022-09-23T06:17:59;19.20;;;15.90;;
60026;SDS011;45891;53.006;6.512;2022-09-23T06:20:26;19.35;;;15.43;;
60026;SDS011;45891;53.006;6.512;2022-09-23T06:22:52;19.60;;;15.52;;
60026;SDS011;45891;53.006;6.512;2022-09-23T06:25:19;21.35;;;14.95;;
60026;SDS011;45891;53.006;6.512;2022-09-23T06:27:54;17.15;;;14.75;;
60026;SDS011;45891;53.006;6.512;2022-09-23T06:30:21;20.08;;;15.85;;
60026;SDS011;45891;53.006;6.512;2022-09-23T06:32:48;19.67;;;14.60;;
60026;SDS011;45891;53.006;6.512;2022-09-23T06:35:19;19.50;;;14.53;;
60026;SDS011;45891;53.006;6.512;2022-09-23T06:37:46;18.10;;;14.70;;
60026;SDS011;45891;53.006;6.512;2022-09-23T06:40:12;19.17;;;14.50;;
60026;SDS011;45891;53.006;6.512;2022-09-23T06:42:39;17.48;;;14.75;;
60026;SDS011;45891;53.006;6.512;2022-09-23T06:45:06;20.60;;;14.95;;
60026;SDS011;45891;53.006;6.512;2022-09-23T06:47:36;18.42;;;14.18;;
60026;SDS011;45891;53.006;6.512;2022-09-23T06:50:02;19.25;;;13.90;;
60026;SDS011;45891;53.006;6.512;2022-09-23T06:52:29;16.45;;;14.15;;
60026;SDS011;45891;53.006;6.512;2022-09-23T06:54:55;19.80;;;14.20;;
60026;SDS011;45891;53.006;6.512;2022-09-23T06:57:21;16.45;;;13.50;;
60026;SDS011;45891;53.006;6.512;2022-09-23T06:59:49;19.23;;;13.73;;
60026;SDS011;45891;53.006;6.512;2022-09-23T07:02:15;18.73;;;14.45;;
60026;SDS011;45891;53.006;6.512;2022-09-23T07:04:41;18.67;;;14.13;;
60026;SDS011;45891;53.006;6.512;2022-09-23T07:07:07;19.85;;;13.50;;
60026;SDS011;45891;53.006;6.512;2022-09-23T07:09:35;19.38;;;13.57;;
60026;SDS011;45891;53.006;6.512;2022-09-23T07:12:03;17.73;;;13.63;;
60026;SDS011;45891;53.006;6.512;2022-09-23T07:14:29;16.70;;;13.63;;
60026;SDS011;45891;53.006;6.512;2022-09-23T07:16:55;17.60;;;13.07;;
60026;SDS011;45891;53.006;6.512;2022-09-23T07:19:21;17.63;;;13.27;;
60026;SDS011;45891;53.006;6.512;2022-09-23T07:21:48;18.23;;;12.80;;
60026;SDS011;45891;53.006;6.512;2022-09-23T07:24:15;18.67;;;12.85;;
60026;SDS011;45891;53.006;6.512;2022-09-23T07:26:41;17.63;;;12.90;;
60026;SDS011;45891;53.006;6.512;2022-09-23T07:29:10;17.33;;;12.80;;
60026;SDS011;45891;53.006;6.512;2022-09-23T07:31:38;17.20;;;13.07;;
60026;SDS011;45891;53.006;6.512;2022-09-23T07:34:04;20.10;;;13.02;;
60026;SDS011;45891;53.006;6.512;2022-09-23T07:36:31;17.15;;;13.00;;
60026;SDS011;45891;53.006;6.512;2022-09-23T07:38:58;16.92;;;12.27;;
60026;SDS011;45891;53.006;6.512;2022-09-23T07:41:28;16.52;;;12.52;;
60026;SDS011;45891;53.006;6.512;2022-09-23T07:43:56;20.27;;;12.77;;
60026;SDS011;45891;53.006;6.512;2022-09-23T07:46:25;18.05;;;12.02;;
60026;SDS011;45891;53.006;6.512;2022-09-23T07:48:53;16.17;;;12.45;;
60026;SDS011;45891;53.006;6.512;2022-09-23T07:51:23;17.48;;;11.80;;
60026;SDS011;45891;53.006;6.512;2022-09-23T07:53:51;18.20;;;12.55;;
60026;SDS011;45891;53.006;6.512;2022-09-23T07:56:19;19.17;;;12.45;;
60026;SDS011;45891;53.006;6.512;2022-09-23T07:58:48;17.90;;;11.68;;
60026;SDS011;45891;53.006;6.512;2022-09-23T08:01:25;18.13;;;11.82;;
60026;SDS011;45891;53.006;6.512;2022-09-23T08:03:56;17.65;;;11.57;;
60026;SDS011;45891;53.006;6.512;2022-09-23T08:06:24;15.10;;;12.02;;
60026;SDS011;45891;53.006;6.512;2022-09-23T08:08:50;16.60;;;11.23;;
60026;SDS011;45891;53.006;6.512;2022-09-23T08:11:17;16.00;;;12.43;;
60026;SDS011;45891;53.006;6.512;2022-09-23T08:13:43;16.63;;;11.60;;
60026;SDS011;45891;53.006;6.512;2022-09-23T08:16:09;15.35;;;11.20;;
60026;SDS011;45891;53.006;6.512;2022-09-23T08:18:36;15.98;;;11.05;;
60026;SDS011;45891;53.006;6.512;2022-09-23T08:21:02;14.43;;;10.35;;
60026;SDS011;45891;53.006;6.512;2022-09-23T08:23:28;14.40;;;10.73;;
60026;SDS011;45891;53.006;6.512;2022-09-23T08:26:02;13.95;;;10.48;;
60026;SDS011;45891;53.006;6.512;2022-09-23T08:28:29;17.25;;;10.40;;
60026;SDS011;45891;53.006;6.512;2022-09-23T08:30:57;17.48;;;10.50;;
60026;SDS011;45891;53.006;6.512;2022-09-23T08:33:24;18.05;;;10.50;;
60026;SDS011;45891;53.006;6.512;2022-09-23T08:35:51;16.45;;;10.30;;
60026;SDS011;45891;53.006;6.512;2022-09-23T08:38:18;12.60;;;9.38;;
60026;SDS011;45891;53.006;6.512;2022-09-23T08:40:46;14.57;;;9.68;;
60026;SDS011;45891;53.006;6.512;2022-09-23T08:43:24;15.35;;;9.75;;
60026;SDS011;45891;53.006;6.512;2022-09-23T08:45:54;19.42;;;9.57;;
60026;SDS011;45891;53.006;6.512;2022-09-23T08:48:32;14.73;;;9.32;;
60026;SDS011;45891;53.006;6.512;2022-09-23T08:51:05;15.73;;;9.63;;
60026;SDS011;45891;53.006;6.512;2022-09-23T08:53:36;13.60;;;9.40;;
60026;SDS011;45891;53.006;6.512;2022-09-23T08:56:04;15.38;;;9.45;;
60026;SDS011;45891;53.006;6.512;2022-09-23T08:58:52;14.00;;;8.65;;
60026;SDS011;45891;53.006;6.512;2022-09-23T09:04:31;13.45;;;8.85;;
60026;SDS011;45891;53.006;6.512;2022-09-23T09:09:47;12.98;;;8.73;;
60026;SDS011;45891;53.006;6.512;2022-09-23T09:12:41;13.70;;;8.77;;
60026;SDS011;45891;53.006;6.512;2022-09-23T09:15:17;13.75;;;8.93;;
60026;SDS011;45891;53.006;6.512;2022-09-23T09:20:20;14.52;;;8.10;;
60026;SDS011;45891;53.006;6.512;2022-09-23T09:22:56;12.57;;;8.70;;
60026;SDS011;45891;53.006;6.512;2022-09-23T09:28:00;12.32;;;8.25;;
60026;SDS011;45891;53.006;6.512;2022-09-23T09:30:56;12.32;;;8.40;;
60026;SDS011;45891;53.006;6.512;2022-09-23T09:33:29;13.82;;;8.63;;
60026;SDS011;45891;53.006;6.512;2022-09-23T09:36:37;14.73;;;8.35;;
60026;SDS011;45891;53.006;6.512;2022-09-23T09:38:56;12.15;;;8.35;;
60026;SDS011;45891;53.006;6.512;2022-09-23T09:41:25;13.07;;;8.20;;
60026;SDS011;45891;53.006;6.512;2022-09-23T09:43:56;13.05;;;8.27;;
60026;SDS011;45891;53.006;6.512;2022-09-23T09:46:58;11.73;;;8.10;;
60026;SDS011;45891;53.006;6.512;2022-09-23T09:49:26;15.60;;;8.55;;
60026;SDS011;45891;53.006;6.512;2022-09-23T09:52:09;14.00;;;8.18;;
60026;SDS011;45891;53.006;6.512;2022-09-23T09:54:37;13.57;;;8.30;;
60026;SDS011;45891;53.006;6.512;2022-09-23T09:57:04;13.23;;;8.40;;
60026;SDS011;45891;53.006;6.512;2022-09-23T09:59:37;18.52;;;8.10;;
60026;SDS011;45891;53.006;6.512;2022-09-23T10:04:37;12.63;;;8.25;;
60026;SDS011;45891;53.006;6.512;2022-09-23T10:09:47;12.68;;;8.00;;
60026;SDS011;45891;53.006;6.512;2022-09-23T10:12:18;13.57;;;8.05;;
60026;SDS011;45891;53.006;6.512;2022-09-23T10:14:47;13.10;;;7.72;;
60026;SDS011;45891;53.006;6.512;2022-09-23T10:17:28;12.05;;;7.68;;
60026;SDS011;45891;53.006;6.512;2022-09-23T10:20:07;11.88;;;7.15;;
60026;SDS011;45891;53.006;6.512;2022-09-23T10:22:38;13.88;;;7.70;;
60026;SDS011;45891;53.006;6.512;2022-09-23T10:25:08;13.10;;;7.90;;
60026;SDS011;45891;53.006;6.512;2022-09-23T10:27:42;12.93;;;7.45;;
60026;SDS011;45891;53.006;6.512;2022-09-23T10:30:20;12.35;;;7.68;;
60026;SDS011;45891;53.006;6.512;2022-09-23T10:35:20;14.23;;;7.57;;
60026;SDS011;45891;53.006;6.512;2022-09-23T11:00:50;12.10;;;7.28;;
60026;SDS011;45891;53.006;6.512;2022-09-23T11:06:25;14.07;;;7.75;;
60026;SDS011;45891;53.006;6.512;2022-09-23T11:39:18;14.23;;;8.15;;
60026;SDS011;45891;53.006;6.512;2022-09-23T11:41:48;14.43;;;7.85;;
60026;SDS011;45891;53.006;6.512;2022-09-23T11:46:54;13.60;;;8.07;;
60026;SDS011;45891;53.006;6.512;2022-09-23T11:49:28;12.88;;;7.43;;
60026;SDS011;45891;53.006;6.512;2022-09-23T11:52:10;13.93;;;8.05;;
60026;SDS011;45891;53.006;6.512;2022-09-23T11:54:49;13.13;;;7.90;;
60026;SDS011;45891;53.006;6.512;2022-09-23T11:57:32;12.73;;;7.53;;
60026;SDS011;45891;53.006;6.512;2022-09-23T12:00:11;15.10;;;7.97;;
60026;SDS011;45891;53.006;6.512;2022-09-23T12:03:02;13.98;;;7.70;;
60026;SDS011;45891;53.006;6.512;2022-09-23T12:05:37;13.30;;;8.18;;
60026;SDS011;45891;53.006;6.512;2022-09-23T12:14:15;14.77;;;7.72;;
60026;SDS011;45891;53.006;6.512;2022-09-23T12:28:18;15.02;;;8.68;;
60026;SDS011;45891;53.006;6.512;2022-09-23T12:30:49;16.95;;;8.90;;
60026;SDS011;45891;53.006;6.512;2022-09-23T12:33:21;13.68;;;8.73;;
60026;SDS011;45891;53.006;6.512;2022-09-23T12:35:51;15.38;;;8.90;;
60026;SDS011;45891;53.006;6.512;2022-09-23T12:38:20;17.10;;;9.57;;
60026;SDS011;45891;53.006;6.512;2022-09-23T12:40:52;14.90;;;9.15;;
60026;SDS011;45891;53.006;6.512;2022-09-23T12:51:23;16.02;;;10.00;;
60026;SDS011;45891;53.006;6.512;2022-09-23T12:53:51;15.50;;;9.13;;
60026;SDS011;45891;53.006;6.512;2022-09-23T12:56:22;13.88;;;9.25;;
60026;SDS011;45891;53.006;6.512;2022-09-23T13:03:50;15.40;;;9.48;;
60026;SDS011;45891;53.006;6.512;2022-09-23T13:06:38;15.60;;;9.68;;
60026;SDS011;45891;53.006;6.512;2022-09-23T13:09:16;14.55;;;9.27;;
60026;SDS011;45891;53.006;6.512;2022-09-23T13:11:46;17.00;;;9.10;;
60026;SDS011;45891;53.006;6.512;2022-09-23T13:14:16;14.38;;;9.35;;
60026;SDS011;45891;53.006;6.512;2022-09-23T13:16:47;14.38;;;9.73;;
60026;SDS011;45891;53.006;6.512;2022-09-23T13:24:33;14.88;;;9.85;;
60026;SDS011;45891;53.006;6.512;2022-09-23T13:27:16;15.43;;;9.82;;
60026;SDS011;45891;53.006;6.512;2022-09-23T13:32:38;16.00;;;10.38;;
60026;SDS011;45891;53.006;6.512;2022-09-23T13:37:45;16.42;;;10.02;;
60026;SDS011;45891;53.006;6.512;2022-09-23T13:40:21;16.60;;;10.48;;
60026;SDS011;45891;53.006;6.512;2022-09-23T13:43:10;14.57;;;10.18;;
60026;SDS011;45891;53.006;6.512;2022-09-23T13:45:41;15.90;;;10.18;;
60026;SDS011;45891;53.006;6.512;2022-09-23T13:48:12;14.75;;;10.65;;
60026;SDS011;45891;53.006;6.512;2022-09-23T13:50:44;13.18;;;9.77;;
60026;SDS011;45891;53.006;6.512;2022-09-23T13:53:23;16.33;;;10.32;;
60026;SDS011;45891;53.006;6.512;2022-09-23T13:55:59;14.82;;;9.85;;
60026;SDS011;45891;53.006;6.512;2022-09-23T13:58:28;16.58;;;9.95;;
60026;SDS011;45891;53.006;6.512;2022-09-23T14:00:55;13.23;;;9.88;;
60026;SDS011;45891;53.006;6.512;2022-09-23T14:03:23;14.13;;;9.50;;
60026;SDS011;45891;53.006;6.512;2022-09-23T14:05:51;14.95;;;9.65;;
60026;SDS011;45891;53.006;6.512;2022-09-23T14:08:20;17.23;;;9.60;;
60026;SDS011;45891;53.006;6.512;2022-09-23T14:10:46;15.57;;;10.10;;
60026;SDS011;45891;53.006;6.512;2022-09-23T14:13:17;13.40;;;9.30;;
60026;SDS011;45891;53.006;6.512;2022-09-23T14:15:48;14.35;;;9.50;;
60026;SDS011;45891;53.006;6.512;2022-09-23T14:18:25;13.07;;;8.98;;
60026;SDS011;45891;53.006;6.512;2022-09-23T14:20:52;15.18;;;9.38;;
60026;SDS011;45891;53.006;6.512;2022-09-23T14:23:18;13.05;;;9.00;;
60026;SDS011;45891;53.006;6.512;2022-09-23T14:25:45;13.27;;;9.30;;
60026;SDS011;45891;53.006;6.512;2022-09-23T14:28:16;14.50;;;9.27;;
60026;SDS011;45891;53.006;6.512;2022-09-23T14:30:48;13.77;;;9.07;;
60026;SDS011;45891;53.006;6.512;2022-09-23T14:33:27;13.90;;;9.48;;
60026;SDS011;45891;53.006;6.512;2022-09-23T14:36:06;15.60;;;9.80;;
60026;SDS011;45891;53.006;6.512;2022-09-23T14:39:06;17.63;;;9.65;;
60026;SDS011;45891;53.006;6.512;2022-09-23T14:41:38;14.45;;;9.00;;
60026;SDS011;45891;53.006;6.512;2022-09-23T14:44:13;14.77;;;9.18;;
60026;SDS011;45891;53.006;6.512;2022-09-23T14:46:56;14.68;;;9.25;;
60026;SDS011;45891;53.006;6.512;2022-09-23T14:49:23;14.82;;;9.38;;
60026;SDS011;45891;53.006;6.512;2022-09-23T14:51:53;16.23;;;9.02;;
60026;SDS011;45891;53.006;6.512;2022-09-23T15:02:38;13.73;;;8.45;;
60026;SDS011;45891;53.006;6.512;2022-09-23T15:07:40;15.27;;;9.00;;
60026;SDS011;45891;53.006;6.512;2022-09-23T15:10:21;12.77;;;8.82;;
60026;SDS011;45891;53.006;6.512;2022-09-23T15:12:52;17.63;;;9.70;;
60026;SDS011;45891;53.006;6.512;2022-09-23T15:15:27;14.65;;;8.82;;
60026;SDS011;45891;53.006;6.512;2022-09-23T15:17:53;13.40;;;8.55;;
60026;SDS011;45891;53.006;6.512;2022-09-23T15:22:51;15.23;;;8.90;;
60026;SDS011;45891;53.006;6.512;2022-09-23T15:30:37;15.23;;;9.05;;
60026;SDS011;45891;53.006;6.512;2022-09-23T15:33:04;18.75;;;9.40;;
60026;SDS011;45891;53.006;6.512;2022-09-23T15:35:30;15.23;;;9.20;;
60026;SDS011;45891;53.006;6.512;2022-09-23T15:37:58;15.27;;;9.20;;
60026;SDS011;45891;53.006;6.512;2022-09-23T15:40:30;13.17;;;8.87;;
60026;SDS011;45891;53.006;6.512;2022-09-23T15:42:59;15.05;;;9.07;;
60026;SDS011;45891;53.006;6.512;2022-09-23T15:47:59;16.23;;;9.82;;
60026;SDS011;45891;53.006;6.512;2022-09-23T15:50:32;18.75;;;9.52;;
60026;SDS011;45891;53.006;6.512;2022-09-23T15:52:59;16.15;;;9.68;;
60026;SDS011;45891;53.006;6.512;2022-09-23T15:55:26;15.37;;;9.37;;
60026;SDS011;45891;53.006;6.512;2022-09-23T15:57:52;14.43;;;8.98;;
60026;SDS011;45891;53.006;6.512;2022-09-23T16:00:18;13.13;;;9.50;;
60026;SDS011;45891;53.006;6.512;2022-09-23T16:02:46;14.43;;;8.95;;
60026;SDS011;45891;53.006;6.512;2022-09-23T16:05:22;14.40;;;9.90;;
60026;SDS011;45891;53.006;6.512;2022-09-23T16:07:49;23.50;;;13.85;;
60026;SDS011;45891;53.006;6.512;2022-09-23T16:10:17;20.58;;;14.63;;
60026;SDS011;45891;53.006;6.512;2022-09-23T16:12:45;16.23;;;11.70;;
60026;SDS011;45891;53.006;6.512;2022-09-23T16:15:12;17.23;;;12.48;;
60026;SDS011;45891;53.006;6.512;2022-09-23T16:17:40;15.40;;;10.57;;
60026;SDS011;45891;53.006;6.512;2022-09-23T16:20:08;16.63;;;11.07;;
60026;SDS011;45891;53.006;6.512;2022-09-23T16:22:36;18.15;;;11.65;;
60026;SDS011;45891;53.006;6.512;2022-09-23T16:25:03;15.75;;;11.00;;
60026;SDS011;45891;53.006;6.512;2022-09-23T16:27:31;21.20;;;11.60;;
60026;SDS011;45891;53.006;6.512;2022-09-23T16:29:58;21.75;;;16.13;;
60026;SDS011;45891;53.006;6.512;2022-09-23T16:32:24;22.30;;;17.13;;
60026;SDS011;45891;53.006;6.512;2022-09-23T16:34:50;19.95;;;15.50;;
60026;SDS011;45891;53.006;6.512;2022-09-23T16:37:16;21.65;;;15.15;;
60026;SDS011;45891;53.006;6.512;2022-09-23T16:39:44;19.27;;;13.48;;
60026;SDS011;45891;53.006;6.512;2022-09-23T16:42:10;18.67;;;13.10;;
60026;SDS011;45891;53.006;6.512;2022-09-23T16:44:37;17.73;;;12.60;;
60026;SDS011;45891;53.006;6.512;2022-09-23T16:47:06;16.08;;;12.13;;
60026;SDS011;45891;53.006;6.512;2022-09-23T16:49:33;17.65;;;13.30;;
60026;SDS011;45891;53.006;6.512;2022-09-23T16:51:59;26.42;;;17.75;;
60026;SDS011;45891;53.006;6.512;2022-09-23T16:54:27;19.70;;;14.88;;
60026;SDS011;45891;53.006;6.512;2022-09-23T16:56:53;18.27;;;13.85;;
60026;SDS011;45891;53.006;6.512;2022-09-23T16:59:19;17.85;;;12.93;;
60026;SDS011;45891;53.006;6.512;2022-09-23T17:01:46;19.45;;;13.77;;
60026;SDS011;45891;53.006;6.512;2022-09-23T17:04:30;16.83;;;12.75;;
60026;SDS011;45891;53.006;6.512;2022-09-23T17:06:57;21.02;;;14.43;;
60026;SDS011;45891;53.006;6.512;2022-09-23T17:09:25;18.90;;;14.50;;
60026;SDS011;45891;53.006;6.512;2022-09-23T17:11:54;18.63;;;12.73;;
60026;SDS011;45891;53.006;6.512;2022-09-23T17:14:29;19.17;;;14.02;;
60026;SDS011;45891;53.006;6.512;2022-09-23T17:16:56;16.83;;;13.60;;
60026;SDS011;45891;53.006;6.512;2022-09-23T17:19:23;18.60;;;13.75;;
60026;SDS011;45891;53.006;6.512;2022-09-23T17:21:49;21.20;;;14.10;;
60026;SDS011;45891;53.006;6.512;2022-09-23T17:24:17;22.15;;;14.60;;
60026;SDS011;45891;53.006;6.512;2022-09-23T17:26:43;20.25;;;14.35;;
60026;SDS011;45891;53.006;6.512;2022-09-23T17:29:10;18.38;;;13.48;;
60026;SDS011;45891;53.006;6.512;2022-09-23T17:31:38;18.27;;;14.00;;
60026;SDS011;45891;53.006;6.512;2022-09-23T17:34:04;21.00;;;15.82;;
60026;SDS011;45891;53.006;6.512;2022-09-23T17:36:30;18.73;;;14.00;;
60026;SDS011;45891;53.006;6.512;2022-09-23T17:38:56;21.02;;;14.77;;
60026;SDS011;45891;53.006;6.512;2022-09-23T17:41:23;18.30;;;13.93;;
60026;SDS011;45891;53.006;6.512;2022-09-23T17:43:53;21.40;;;14.30;;
60026;SDS011;45891;53.006;6.512;2022-09-23T17:46:21;19.77;;;13.70;;
60026;SDS011;45891;53.006;6.512;2022-09-23T17:48:48;21.77;;;13.98;;
60026;SDS011;45891;53.006;6.512;2022-09-23T17:51:17;17.85;;;13.60;;
60026;SDS011;45891;53.006;6.512;2022-09-23T17:53:45;18.67;;;13.38;;
60026;SDS011;45891;53.006;6.512;2022-09-23T17:56:13;17.80;;;13.00;;
60026;SDS011;45891;53.006;6.512;2022-09-23T17:58:41;19.73;;;12.82;;